Time;durP1;ratioP1;P1;durP2;ratioP2;P2;SDS_P1;SDS_P2;PMS_P1;PMS_P2;Temp;Humidity;BMP_temperature;BMP_pressure;BME280_temperature;BME280_humidity;BME280_pressure;Samples;Min_cycle;Max_cycle;Signal;HPM_P1;HPM_P2
2023/11/08 00:05:16;;;;;;;;;;;2.70;99.90;;;;;;21314399;27;20089;-80
2023/11/08 00:15:16;;;;;;;;;;;2.90;99.90;;;;;;21302840;27;19919;-80
2023/11/08 00:25:17;;;;;;;;;;;2.80;99.90;;;;;;21301146;27;19915;-80
2023/11/08 00:35:18;;;;;;;;;;;2.80;99.90;;;;;;21318419;27;19915;-78
2023/11/08 00:45:19;;;;;;;;;;;2.90;99.90;;;;;;21297932;27;20002;-80
2023/11/08 00:55:20;;;;;;;;;;;2.90;99.90;;;;;;21299316;27;19926;-80
2023/11/08 01:05:20;;;;;;;;;;;2.90;99.90;;;;;;21322868;27;19919;-80
2023/11/08 01:15:21;;;;;;;;;;;3.00;99.90;;;;;;21321372;27;19946;-80
2023/11/08 01:25:22;;;;;;;;;;;2.90;99.90;;;;;;21311964;27;19988;-80
2023/11/08 01:35:23;;;;;;;;;;;3.10;99.90;;;;;;21287320;27;19915;-80
2023/11/08 01:45:24;;;;;;;;;;;3.20;99.90;;;;;;21318633;27;19911;-80
2023/11/08 01:55:24;;;;;;;;;;;3.30;99.90;;;;;;21341620;27;19921;-80
2023/11/08 02:05:25;;;;;;;;;;;3.50;99.90;;;;;;21319806;27;19918;-80
2023/11/08 02:15:27;;;;;;;;;;;3.60;99.90;;;;;;21329711;27;19959;-80
2023/11/08 02:25:29;;;;;;;;;;;3.60;99.90;;;;;;21331025;27;20455;-80
2023/11/08 02:35:30;;;;;;;;;;;3.80;99.90;;;;;;21333515;27;19915;-80
2023/11/08 02:45:33;;;;;;;;;;;3.90;99.90;;;;;;21311838;27;19912;-80
2023/11/08 02:55:34;;;;;;;;;;;3.90;99.90;;;;;;21312475;27;19961;-80
2023/11/08 03:05:35;;;;;;;;;;;3.90;99.90;;;;;;21340380;27;20382;-80
2023/11/08 03:15:36;;;;;;;;;;;4.00;99.90;;;;;;21312586;27;19915;-80
2023/11/08 03:25:38;;;;;;;;;;;4.00;99.90;;;;;;21325773;27;19915;-81
2023/11/08 03:35:38;;;;;;;;;;;3.90;99.90;;;;;;21324957;27;19915;-78
2023/11/08 03:45:39;;;;;;;;;;;3.90;99.90;;;;;;21310067;27;20293;-79
2023/11/08 03:55:40;;;;;;;;;;;3.90;99.90;;;;;;21322762;27;19916;-80
2023/11/08 04:05:40;;;;;;;;;;;3.90;99.90;;;;;;21308085;27;19912;-80
2023/11/08 04:15:41;;;;;;;;;;;3.90;99.90;;;;;;21324137;27;19915;-79
2023/11/08 04:25:44;;;;;;;;;;;3.90;99.90;;;;;;21324786;27;20286;-79
2023/11/08 04:35:45;;;;;;;;;;;3.90;99.90;;;;;;21312806;27;19915;-79
2023/11/08 04:45:45;;;;;;;;;;;4.00;99.90;;;;;;21324837;27;20282;-79
2023/11/08 04:55:46;;;;;;;;;;;4.20;99.90;;;;;;21324366;27;20016;-80
2023/11/08 05:05:47;;;;;;;;;;;4.30;99.90;;;;;;21311123;27;19923;-80
2023/11/08 05:15:47;;;;;;;;;;;4.30;99.90;;;;;;21309062;27;19923;-80
2023/11/08 05:25:48;;;;;;;;;;;4.30;99.90;;;;;;21315263;27;19911;-80
2023/11/08 05:35:49;;;;;;;;;;;4.40;99.90;;;;;;21322558;27;19968;-80
2023/11/08 05:45:50;;;;;;;;;;;4.50;99.90;;;;;;21323448;27;19911;-81
2023/11/08 05:55:50;;;;;;;;;;;4.50;99.90;;;;;;21318942;27;19984;-79
2023/11/08 06:05:51;;;;;;;;;;;4.60;99.90;;;;;;21329735;27;19915;-79
2023/11/08 06:15:52;;;;;;;;;;;4.50;99.90;;;;;;21322042;27;19937;-79
2023/11/08 06:25:53;;;;;;;;;;;4.60;99.90;;;;;;21311920;27;19978;-80
2023/11/08 06:35:53;;;;;;;;;;;4.60;99.90;;;;;;21355085;27;20386;-79
2023/11/08 06:45:54;;;;;;;;;;;4.60;99.90;;;;;;21330271;27;19911;-79
2023/11/08 06:55:57;;;;;;;;;;;4.90;99.90;;;;;;21331157;27;19967;-79
2023/11/08 07:05:58;;;;;;;;;;;4.90;99.90;;;;;;21336869;27;19983;-79
2023/11/08 07:15:59;;;;;;;;;;;4.90;99.90;;;;;;21339826;27;19915;-79
2023/11/08 07:26:00;;;;;;;;;;;5.10;99.90;;;;;;21328671;27;20466;-79
2023/11/08 07:36:01;;;;;;;;;;;5.10;99.90;;;;;;21311054;27;19937;-79
2023/11/08 07:46:01;;;;;;;;;;;5.20;99.90;;;;;;21334579;27;19911;-79
2023/11/08 07:56:03;;;;;;;;;;;5.30;99.90;;;;;;21329018;27;19915;-78
2023/11/08 08:06:04;;;;;;;;;;;5.80;99.90;;;;;;21310987;27;19975;-78
2023/11/08 08:16:05;;;;;;;;;;;7.50;99.90;;;;;;21326418;27;19915;-80
2023/11/08 08:26:05;;;;;;;;;;;8.10;99.90;;;;;;21329213;27;19918;-78
2023/11/08 08:36:06;;;;;;;;;;;7.60;99.90;;;;;;21331293;27;19936;-79
2023/11/08 08:46:08;;;;;;;;;;;7.40;99.90;;;;;;21324701;27;19964;-78
2023/11/08 08:56:09;;;;;;;;;;;7.40;99.90;;;;;;21328172;27;19922;-79
2023/11/08 09:06:11;;;;;;;;;;;7.50;99.90;;;;;;21327625;27;19946;-80
2023/11/08 09:16:12;;;;;;;;;;;8.00;99.90;;;;;;21321036;27;19914;-80
2023/11/08 09:26:13;;;;;;;;;;;10.10;99.90;;;;;;21323028;27;19915;-79
2023/11/08 09:36:13;;;;;;;;;;;11.40;99.90;;;;;;21330229;27;19936;-78
2023/11/08 09:46:15;;;;;;;;;;;11.60;99.90;;;;;;21321321;27;20362;-79
2023/11/08 09:56:16;;;;;;;;;;;12.80;99.90;;;;;;21298197;27;19957;-78
2023/11/08 10:06:16;;;;;;;;;;;12.70;99.90;;;;;;21325933;27;19931;-79
2023/11/08 10:16:17;;;;;;;;;;;12.90;99.90;;;;;;21337098;27;20450;-78
2023/11/08 10:26:19;;;;;;;;;;;13.10;99.90;;;;;;21349047;27;19934;-78
2023/11/08 10:36:26;;;;;;;;;;;12.30;99.90;;;;;;21372912;27;19922;-79
2023/11/08 10:46:27;;;;;;;;;;;13.90;99.90;;;;;;21310652;27;20006;-80
2023/11/08 10:56:29;;;;;;;;;;;15.00;99.90;;;;;;21342256;27;19919;-81
2023/11/08 11:06:31;;;;;;;;;;;15.20;99.90;;;;;;21346428;27;19912;-80
2023/11/08 11:16:35;;;;;;;;;;;15.70;99.90;;;;;;21344240;27;19915;-78
2023/11/08 11:26:42;;;;;;;;;;;16.10;99.90;;;;;;21348260;27;20277;-79
2023/11/08 11:37:02;;;;;;;;;;;16.80;99.90;;;;;;21328025;27;20001;-80
2023/11/08 11:47:09;;;;;;;;;;;17.00;99.90;;;;;;21348816;27;19918;-79
2023/11/08 11:57:10;;;;;;;;;;;15.80;99.90;;;;;;21334100;27;19982;-80
2023/11/08 12:07:12;;;;;;;;;;;15.70;99.90;;;;;;21320965;27;19963;-81
2023/11/08 12:17:13;;;;;;;;;;;15.10;99.90;;;;;;21334939;27;19935;-81
2023/11/08 12:27:13;;;;;;;;;;;15.10;99.90;;;;;;21346084;27;19911;-79
2023/11/08 12:37:14;;;;;;;;;;;14.20;99.90;;;;;;21162007;27;20347;-78
2023/11/08 12:47:15;;;;;;;;;;;14.50;99.90;;;;;;21168922;28;19926;-79
2023/11/08 12:57:25;;;;;;;;;;;14.20;99.90;;;;;;21170201;28;20326;-79
2023/11/08 13:07:26;;;;;;;;;;;14.80;99.90;;;;;;21163562;28;19912;-79
2023/11/08 13:17:26;;;;;;;;;;;14.60;99.90;;;;;;21159048;28;19961;-82
2023/11/08 13:27:27;;;;;;;;;;;14.40;99.90;;;;;;21159565;27;19965;-79
2023/11/08 13:37:28;;;;;;;;;;;14.20;99.90;;;;;;21246461;27;19926;-79
2023/11/08 13:47:28;;;;;;;;;;;13.90;99.90;;;;;;21235250;27;19922;-79
2023/11/08 13:57:29;;;;;;;;;;;14.60;99.90;;;;;;21246926;27;19915;-80
2023/11/08 14:07:30;;;;;;;;;;;15.00;99.90;;;;;;21252025;28;19921;-79
2023/11/08 14:17:31;;;;;;;;;;;15.10;99.90;;;;;;21243928;27;19927;-78
2023/11/08 14:27:32;;;;;;;;;;;15.00;99.90;;;;;;21239954;28;20332;-78
2023/11/08 14:37:33;;;;;;;;;;;14.60;99.90;;;;;;21156801;28;19943;-79
2023/11/08 14:47:34;;;;;;;;;;;14.60;99.90;;;;;;21157734;28;19912;-80
2023/11/08 14:57:34;;;;;;;;;;;15.20;99.90;;;;;;21170611;27;19962;-79
2023/11/08 15:07:35;;;;;;;;;;;14.60;99.90;;;;;;21173765;27;19919;-80
2023/11/08 15:17:36;;;;;;;;;;;15.00;99.90;;;;;;21171630;28;20503;-78
2023/11/08 15:27:36;;;;;;;;;;;14.40;99.90;;;;;;21174054;28;20003;-81
2023/11/08 15:37:37;;;;;;;;;;;13.90;99.90;;;;;;21168930;28;19916;-80
2023/11/08 15:47:37;;;;;;;;;;;12.90;99.90;;;;;;21158864;28;20002;-80
2023/11/08 15:57:38;;;;;;;;;;;11.70;99.90;;;;;;21166449;27;20359;-80
2023/11/08 16:07:39;;;;;;;;;;;9.80;99.90;;;;;;21165479;27;20026;-80
2023/11/08 16:17:40;;;;;;;;;;;8.90;99.90;;;;;;21116860;28;19924;-79
2023/11/08 16:27:41;;;;;;;;;;;8.40;99.90;;;;;;21154518;28;19994;-78
2023/11/08 16:37:41;;;;;;;;;;;7.80;99.90;;;;;;21167149;28;19922;-79
2023/11/08 16:47:42;;;;;;;;;;;7.30;99.90;;;;;;21170771;28;19912;-79
2023/11/08 16:57:43;;;;;;;;;;;6.70;99.90;;;;;;21167489;27;20402;-79
2023/11/08 17:07:43;;;;;;;;;;;6.50;99.90;;;;;;21150700;28;19912;-79
2023/11/08 17:17:44;;;;;;;;;;;5.80;99.90;;;;;;21163498;28;20320;-79
2023/11/08 17:27:45;;;;;;;;;;;6.20;99.90;;;;;;21168296;27;19984;-79
2023/11/08 17:37:45;;;;;;;;;;;6.30;99.90;;;;;;21246552;27;20357;-79
2023/11/08 17:47:46;;;;;;;;;;;6.30;99.90;;;;;;21246041;27;20441;-79
2023/11/08 17:57:47;;;;;;;;;;;6.40;99.90;;;;;;21248929;27;20395;-78
2023/11/08 18:07:47;;;;;;;;;;;6.50;99.90;;;;;;21245465;28;19911;-78
2023/11/08 18:17:51;;;;;;;;;;;5.50;99.90;;;;;;21244104;27;20267;-79
2023/11/08 18:27:51;;;;;;;;;;;5.90;99.90;;;;;;21239415;27;19976;-79
2023/11/08 18:37:52;;;;;;;;;;;6.10;99.90;;;;;;21180003;28;19920;-79
2023/11/08 18:47:57;;;;;;;;;;;5.70;99.90;;;;;;21175892;28;19918;-80
2023/11/08 18:57:58;;;;;;;;;;;4.90;99.90;;;;;;21180379;27;19958;-78
2023/11/08 19:07:59;;;;;;;;;;;5.00;99.90;;;;;;21176662;28;20268;-78
2023/11/08 19:17:59;;;;;;;;;;;4.90;99.90;;;;;;21174223;27;19915;-78
2023/11/08 19:28:00;;;;;;;;;;;4.80;99.90;;;;;;21172113;27;19916;-79
2023/11/08 19:38:01;;;;;;;;;;;4.30;99.90;;;;;;21168688;28;19920;-79
2023/11/08 19:48:01;;;;;;;;;;;4.40;99.90;;;;;;21170931;27;19963;-80
2023/11/08 19:58:02;;;;;;;;;;;4.30;99.90;;;;;;21175999;27;19961;-79
2023/11/08 20:08:03;;;;;;;;;;;3.90;99.90;;;;;;21196900;27;19963;-78
2023/11/08 20:18:04;;;;;;;;;;;3.80;99.90;;;;;;21204828;27;19955;-78
2023/11/08 20:28:05;;;;;;;;;;;4.10;99.90;;;;;;21186534;27;19915;-79
2023/11/08 20:38:06;;;;;;;;;;;4.10;99.90;;;;;;21191760;27;19919;-79
2023/11/08 20:48:07;;;;;;;;;;;3.90;99.90;;;;;;21200634;27;19918;-78
2023/11/08 20:58:08;;;;;;;;;;;3.80;99.90;;;;;;21192804;27;19947;-78
2023/11/08 21:08:09;;;;;;;;;;;3.40;99.90;;;;;;21192315;27;19919;-78
2023/11/08 21:18:10;;;;;;;;;;;3.20;99.90;;;;;;21196048;27;19968;-79
2023/11/08 21:28:10;;;;;;;;;;;3.60;99.90;;;;;;21188876;27;20112;-78
2023/11/08 21:38:11;;;;;;;;;;;3.60;99.90;;;;;;21265528;27;20328;-79
2023/11/08 21:48:17;;;;;;;;;;;3.40;99.90;;;;;;21272519;27;20207;-79
2023/11/08 21:58:19;;;;;;;;;;;3.30;99.90;;;;;;21276075;27;19915;-78
2023/11/08 22:08:22;;;;;;;;;;;3.10;99.90;;;;;;21297775;27;19963;-79
2023/11/08 22:18:22;;;;;;;;;;;3.10;99.90;;;;;;21281894;27;19923;-78
2023/11/08 22:28:23;;;;;;;;;;;3.00;99.90;;;;;;21285297;27;19992;-78
2023/11/08 22:38:23;;;;;;;;;;;2.90;99.90;;;;;;21192297;27;19991;-78
2023/11/08 22:48:26;;;;;;;;;;;3.20;99.90;;;;;;21202611;27;19974;-79
2023/11/08 22:58:26;;;;;;;;;;;3.30;99.90;;;;;;21195106;27;20002;-78
2023/11/08 23:08:27;;;;;;;;;;;3.40;99.90;;;;;;21200566;27;20353;-78
2023/11/08 23:18:29;;;;;;;;;;;3.20;99.90;;;;;;21188050;27;19976;-79
2023/11/08 23:28:29;;;;;;;;;;;3.30;99.90;;;;;;21200250;27;20382;-78
2023/11/08 23:38:31;;;;;;;;;;;3.30;99.90;;;;;;21285179;27;19923;-79
2023/11/08 23:48:32;;;;;;;;;;;3.40;99.90;;;;;;21282391;27;19956;-79
2023/11/08 23:58:32;;;;;;;;;;;3.20;99.90;;;;;;21293489;27;20339;-80
